sensor_id;sensor_type;location;lat;lon;timestamp;pressure;altitude;pressure_sealevel;temperature;humidity
67697;BME280;54486;51.442;6.778;2023-12-20T00:02:17;77838.81;;;-141.21;100.00
67697;BME280;54486;51.442;6.778;2023-12-20T00:04:44;77842.81;;;-141.21;100.00
67697;BME280;54486;51.442;6.778;2023-12-20T00:07:11;77844.81;;;-141.21;100.00
67697;BME280;54486;51.442;6.778;2023-12-20T00:09:39;77854.81;;;-141.21;100.00
67697;BME280;54486;51.442;6.778;2023-12-20T00:12:06;77862.81;;;-141.21;100.00
67697;BME280;54486;51.442;6.778;2023-12-20T00:14:33;77874.84;;;-141.21;100.00
67697;BME280;54486;51.442;6.778;2023-12-20T00:17:00;77880.84;;;-141.21;100.00
67697;BME280;54486;51.442;6.778;2023-12-20T00:19:28;77886.84;;;-141.21;100.00
67697;BME280;54486;51.442;6.778;2023-12-20T00:21:57;77882.84;;;-141.21;100.00
67697;BME280;54486;51.442;6.778;2023-12-20T00:24:24;77894.84;;;-141.21;100.00
67697;BME280;54486;51.442;6.778;2023-12-20T00:26:52;77894.84;;;-141.21;100.00
67697;BME280;54486;51.442;6.778;2023-12-20T00:29:19;77902.88;;;-141.21;100.00
67697;BME280;54486;51.442;6.778;2023-12-20T00:31:47;77908.88;;;-141.21;100.00
67697;BME280;54486;51.442;6.778;2023-12-20T00:34:14;77906.88;;;-141.21;100.00
67697;BME280;54486;51.442;6.778;2023-12-20T00:36:41;77918.88;;;-141.21;100.00
67697;BME280;54486;51.442;6.778;2023-12-20T00:39:09;77914.88;;;-141.21;100.00
67697;BME280;54486;51.442;6.778;2023-12-20T00:41:36;77910.88;;;-141.21;100.00
67697;BME280;54486;51.442;6.778;2023-12-20T00:44:04;77910.88;;;-141.21;100.00
67697;BME280;54486;51.442;6.778;2023-12-20T00:46:31;77916.88;;;-141.21;100.00
67697;BME280;54486;51.442;6.778;2023-12-20T00:48:58;77926.88;;;-141.21;100.00
67697;BME280;54486;51.442;6.778;2023-12-20T00:51:25;77924.88;;;-141.21;100.00
67697;BME280;54486;51.442;6.778;2023-12-20T00:53:52;77922.88;;;-141.21;100.00
67697;BME280;54486;51.442;6.778;2023-12-20T00:56:21;77922.88;;;-141.21;100.00
67697;BME280;54486;51.442;6.778;2023-12-20T00:58:48;77910.88;;;-141.21;100.00
67697;BME280;54486;51.442;6.778;2023-12-20T01:01:15;77926.88;;;-141.21;100.00
67697;BME280;54486;51.442;6.778;2023-12-20T01:03:43;77922.88;;;-141.21;100.00
67697;BME280;54486;51.442;6.778;2023-12-20T01:06:10;77936.91;;;-141.21;100.00
67697;BME280;54486;51.442;6.778;2023-12-20T01:08:38;77930.91;;;-141.21;100.00
67697;BME280;54486;51.442;6.778;2023-12-20T01:11:05;77930.91;;;-141.21;100.00
67697;BME280;54486;51.442;6.778;2023-12-20T01:13:33;77942.91;;;-141.21;100.00
67697;BME280;54486;51.442;6.778;2023-12-20T01:16:00;77934.91;;;-141.21;100.00
67697;BME280;54486;51.442;6.778;2023-12-20T01:18:28;77936.91;;;-141.21;100.00
67697;BME280;54486;51.442;6.778;2023-12-20T01:20:55;77942.91;;;-141.21;100.00
67697;BME280;54486;51.442;6.778;2023-12-20T01:23:22;77938.91;;;-141.21;100.00
67697;BME280;54486;51.442;6.778;2023-12-20T01:25:50;77938.91;;;-141.21;100.00
67697;BME280;54486;51.442;6.778;2023-12-20T01:28:16;77944.91;;;-141.21;100.00
67697;BME280;54486;51.442;6.778;2023-12-20T01:30:44;77946.91;;;-141.21;100.00
67697;BME280;54486;51.442;6.778;2023-12-20T01:33:11;77950.91;;;-141.21;100.00
67697;BME280;54486;51.442;6.778;2023-12-20T01:35:38;77950.91;;;-141.21;100.00
67697;BME280;54486;51.442;6.778;2023-12-20T01:38:05;77954.91;;;-141.21;100.00
67697;BME280;54486;51.442;6.778;2023-12-20T01:40:32;77958.94;;;-141.21;100.00
67697;BME280;54486;51.442;6.778;2023-12-20T01:43:07;77970.94;;;-141.21;100.00
67697;BME280;54486;51.442;6.778;2023-12-20T01:45:39;77966.94;;;-141.21;100.00
67697;BME280;54486;51.442;6.778;2023-12-20T01:48:08;77974.94;;;-141.21;100.00
67697;BME280;54486;51.442;6.778;2023-12-20T01:50:36;77984.94;;;-141.21;100.00
67697;BME280;54486;51.442;6.778;2023-12-20T01:53:05;77990.97;;;-141.21;100.00
67697;BME280;54486;51.442;6.778;2023-12-20T01:55:35;77992.97;;;-141.21;100.00
67697;BME280;54486;51.442;6.778;2023-12-20T01:58:04;78002.97;;;-141.21;100.00
67697;BME280;54486;51.442;6.778;2023-12-20T02:00:32;78016.97;;;-141.21;100.00
67697;BME280;54486;51.442;6.778;2023-12-20T02:03:01;78014.97;;;-141.21;100.00
67697;BME280;54486;51.442;6.778;2023-12-20T02:05:33;78016.97;;;-141.21;100.00
67697;BME280;54486;51.442;6.778;2023-12-20T02:08:02;78012.97;;;-141.21;100.00
67697;BME280;54486;51.442;6.778;2023-12-20T02:10:29;78023.00;;;-141.21;100.00
67697;BME280;54486;51.442;6.778;2023-12-20T02:12:56;78019.00;;;-141.21;100.00
67697;BME280;54486;51.442;6.778;2023-12-20T02:15:23;78023.00;;;-141.21;100.00
67697;BME280;54486;51.442;6.778;2023-12-20T02:17:51;78035.00;;;-141.21;100.00
67697;BME280;54486;51.442;6.778;2023-12-20T02:20:18;78043.00;;;-141.21;100.00
67697;BME280;54486;51.442;6.778;2023-12-20T02:22:45;78043.00;;;-141.21;100.00
67697;BME280;54486;51.442;6.778;2023-12-20T02:25:12;78043.00;;;-141.21;100.00
67697;BME280;54486;51.442;6.778;2023-12-20T02:27:39;78047.03;;;-141.21;100.00
67697;BME280;54486;51.442;6.778;2023-12-20T02:30:07;78049.03;;;-141.21;100.00
67697;BME280;54486;51.442;6.778;2023-12-20T02:32:34;78055.03;;;-141.21;100.00
67697;BME280;54486;51.442;6.778;2023-12-20T02:35:01;78065.03;;;-141.21;100.00
67697;BME280;54486;51.442;6.778;2023-12-20T02:37:28;78067.03;;;-141.21;100.00
67697;BME280;54486;51.442;6.778;2023-12-20T02:39:55;78081.06;;;-141.21;100.00
67697;BME280;54486;51.442;6.778;2023-12-20T02:42:22;78083.06;;;-141.21;100.00
67697;BME280;54486;51.442;6.778;2023-12-20T02:44:50;78087.06;;;-141.21;100.00
67697;BME280;54486;51.442;6.778;2023-12-20T02:47:17;78087.06;;;-141.21;100.00
67697;BME280;54486;51.442;6.778;2023-12-20T02:49:44;78091.06;;;-141.21;100.00
67697;BME280;54486;51.442;6.778;2023-12-20T02:52:11;78095.06;;;-141.21;100.00
67697;BME280;54486;51.442;6.778;2023-12-20T02:54:38;78103.06;;;-141.21;100.00
67697;BME280;54486;51.442;6.778;2023-12-20T02:57:06;78111.09;;;-141.21;100.00
67697;BME280;54486;51.442;6.778;2023-12-20T02:59:33;78115.09;;;-141.21;100.00
67697;BME280;54486;51.442;6.778;2023-12-20T03:02:00;78119.09;;;-141.21;100.00
67697;BME280;54486;51.442;6.778;2023-12-20T03:04:27;78127.09;;;-141.21;100.00
67697;BME280;54486;51.442;6.778;2023-12-20T03:06:55;78127.09;;;-141.21;100.00
67697;BME280;54486;51.442;6.778;2023-12-20T03:09:22;78123.09;;;-141.21;100.00
67697;BME280;54486;51.442;6.778;2023-12-20T03:11:49;78123.09;;;-141.21;100.00
67697;BME280;54486;51.442;6.778;2023-12-20T03:14:16;78123.09;;;-141.21;100.00
67697;BME280;54486;51.442;6.778;2023-12-20T03:16:49;78127.09;;;-141.21;100.00
67697;BME280;54486;51.442;6.778;2023-12-20T03:19:17;78121.09;;;-141.21;100.00
67697;BME280;54486;51.442;6.778;2023-12-20T03:21:45;78119.09;;;-141.21;100.00
67697;BME280;54486;51.442;6.778;2023-12-20T03:24:12;78115.09;;;-141.21;100.00
67697;BME280;54486;51.442;6.778;2023-12-20T03:26:39;78119.09;;;-141.21;100.00
67697;BME280;54486;51.442;6.778;2023-12-20T03:29:06;78115.09;;;-141.21;100.00
67697;BME280;54486;51.442;6.778;2023-12-20T03:31:33;78115.09;;;-141.21;100.00
67697;BME280;54486;51.442;6.778;2023-12-20T03:34:01;78113.09;;;-141.21;100.00
67697;BME280;54486;51.442;6.778;2023-12-20T03:36:28;78115.09;;;-141.21;100.00
67697;BME280;54486;51.442;6.778;2023-12-20T03:38:55;78105.09;;;-141.21;100.00
67697;BME280;54486;51.442;6.778;2023-12-20T03:41:22;78113.09;;;-141.21;100.00
67697;BME280;54486;51.442;6.778;2023-12-20T03:43:49;78115.09;;;-141.21;100.00
67697;BME280;54486;51.442;6.778;2023-12-20T03:46:16;78115.09;;;-141.21;100.00
67697;BME280;54486;51.442;6.778;2023-12-20T03:48:43;78119.09;;;-141.21;100.00
67697;BME280;54486;51.442;6.778;2023-12-20T03:51:10;78135.13;;;-141.21;100.00
67697;BME280;54486;51.442;6.778;2023-12-20T03:53:38;78127.09;;;-141.21;100.00
67697;BME280;54486;51.442;6.778;2023-12-20T03:56:07;78129.09;;;-141.21;100.00
67697;BME280;54486;51.442;6.778;2023-12-20T03:58:34;78131.09;;;-141.21;100.00
67697;BME280;54486;51.442;6.778;2023-12-20T04:01:01;78127.09;;;-141.21;100.00
67697;BME280;54486;51.442;6.778;2023-12-20T04:03:29;78121.09;;;-141.21;100.00
67697;BME280;54486;51.442;6.778;2023-12-20T04:05:56;78111.09;;;-141.21;100.00
67697;BME280;54486;51.442;6.778;2023-12-20T04:08:23;78119.09;;;-141.21;100.00
67697;BME280;54486;51.442;6.778;2023-12-20T04:10:50;78115.09;;;-141.21;100.00
67697;BME280;54486;51.442;6.778;2023-12-20T04:13:17;78117.09;;;-141.21;100.00
67697;BME280;54486;51.442;6.778;2023-12-20T04:15:45;78123.09;;;-141.21;100.00
67697;BME280;54486;51.442;6.778;2023-12-20T04:18:13;78127.09;;;-141.21;100.00
67697;BME280;54486;51.442;6.778;2023-12-20T04:20:42;78127.09;;;-141.21;100.00
67697;BME280;54486;51.442;6.778;2023-12-20T04:23:09;78127.09;;;-141.21;100.00
67697;BME280;54486;51.442;6.778;2023-12-20T04:25:36;78123.09;;;-141.21;100.00
67697;BME280;54486;51.442;6.778;2023-12-20T04:28:03;78119.09;;;-141.21;100.00
67697;BME280;54486;51.442;6.778;2023-12-20T04:30:30;78123.09;;;-141.21;100.00
67697;BME280;54486;51.442;6.778;2023-12-20T04:32:58;78123.09;;;-141.21;100.00
67697;BME280;54486;51.442;6.778;2023-12-20T04:35:25;78129.09;;;-141.21;100.00
67697;BME280;54486;51.442;6.778;2023-12-20T04:37:52;78129.09;;;-141.21;100.00
67697;BME280;54486;51.442;6.778;2023-12-20T04:40:19;78123.09;;;-141.21;100.00
67697;BME280;54486;51.442;6.778;2023-12-20T04:42:47;78123.09;;;-141.21;100.00
67697;BME280;54486;51.442;6.778;2023-12-20T04:45:13;78119.09;;;-141.21;100.00
67697;BME280;54486;51.442;6.778;2023-12-20T04:47:42;78119.09;;;-141.21;100.00
67697;BME280;54486;51.442;6.778;2023-12-20T04:50:10;78123.09;;;-141.21;100.00
67697;BME280;54486;51.442;6.778;2023-12-20T04:52:38;78129.09;;;-141.21;100.00
67697;BME280;54486;51.442;6.778;2023-12-20T04:55:05;78131.09;;;-141.21;100.00
67697;BME280;54486;51.442;6.778;2023-12-20T04:57:32;78135.13;;;-141.21;100.00
67697;BME280;54486;51.442;6.778;2023-12-20T04:59:59;78127.09;;;-141.21;100.00
67697;BME280;54486;51.442;6.778;2023-12-20T05:02:27;78139.13;;;-141.21;100.00
67697;BME280;54486;51.442;6.778;2023-12-20T05:04:54;78139.13;;;-141.21;100.00
67697;BME280;54486;51.442;6.778;2023-12-20T05:07:22;78151.13;;;-141.21;100.00
67697;BME280;54486;51.442;6.778;2023-12-20T05:09:49;78151.13;;;-141.21;100.00
67697;BME280;54486;51.442;6.778;2023-12-20T05:12:16;78155.13;;;-141.21;100.00
67697;BME280;54486;51.442;6.778;2023-12-20T05:14:43;78159.13;;;-141.21;100.00
67697;BME280;54486;51.442;6.778;2023-12-20T05:17:10;78159.13;;;-141.21;100.00
67697;BME280;54486;51.442;6.778;2023-12-20T05:19:37;78159.13;;;-141.21;100.00
67697;BME280;54486;51.442;6.778;2023-12-20T05:22:04;78155.13;;;-141.21;100.00
67697;BME280;54486;51.442;6.778;2023-12-20T05:24:31;78155.13;;;-141.21;100.00
67697;BME280;54486;51.442;6.778;2023-12-20T05:26:58;78143.13;;;-141.21;100.00
67697;BME280;54486;51.442;6.778;2023-12-20T05:29:26;78141.13;;;-141.21;100.00
67697;BME280;54486;51.442;6.778;2023-12-20T05:31:53;78139.13;;;-141.21;100.00
67697;BME280;54486;51.442;6.778;2023-12-20T05:34:21;78137.13;;;-141.21;100.00
67697;BME280;54486;51.442;6.778;2023-12-20T05:36:48;78143.13;;;-141.21;100.00
67697;BME280;54486;51.442;6.778;2023-12-20T05:39:15;78131.09;;;-141.21;100.00
67697;BME280;54486;51.442;6.778;2023-12-20T05:41:42;78121.09;;;-141.21;100.00
67697;BME280;54486;51.442;6.778;2023-12-20T05:44:09;78121.09;;;-141.21;100.00
67697;BME280;54486;51.442;6.778;2023-12-20T05:46:37;78119.09;;;-141.21;100.00
67697;BME280;54486;51.442;6.778;2023-12-20T05:49:04;78111.09;;;-141.21;100.00
67697;BME280;54486;51.442;6.778;2023-12-20T05:51:32;78117.09;;;-141.21;100.00
67697;BME280;54486;51.442;6.778;2023-12-20T05:53:59;78105.09;;;-141.21;100.00
67697;BME280;54486;51.442;6.778;2023-12-20T05:56:26;78107.09;;;-141.21;100.00
67697;BME280;54486;51.442;6.778;2023-12-20T05:58:54;78107.09;;;-141.21;100.00
67697;BME280;54486;51.442;6.778;2023-12-20T06:01:21;78107.09;;;-141.21;100.00
67697;BME280;54486;51.442;6.778;2023-12-20T06:03:49;78119.09;;;-141.21;100.00
67697;BME280;54486;51.442;6.778;2023-12-20T06:06:16;78115.09;;;-141.21;100.00
67697;BME280;54486;51.442;6.778;2023-12-20T06:08:44;78125.09;;;-141.21;100.00
67697;BME280;54486;51.442;6.778;2023-12-20T06:11:12;78109.09;;;-141.21;100.00
67697;BME280;54486;51.442;6.778;2023-12-20T06:13:40;78115.09;;;-141.21;100.00
67697;BME280;54486;51.442;6.778;2023-12-20T06:16:08;78105.09;;;-141.21;100.00
67697;BME280;54486;51.442;6.778;2023-12-20T06:18:35;78101.06;;;-141.21;100.00
67697;BME280;54486;51.442;6.778;2023-12-20T06:21:04;78103.06;;;-141.21;100.00
67697;BME280;54486;51.442;6.778;2023-12-20T06:23:31;78107.09;;;-141.21;100.00
67697;BME280;54486;51.442;6.778;2023-12-20T06:25:58;78107.09;;;-141.21;100.00
67697;BME280;54486;51.442;6.778;2023-12-20T06:28:26;78107.09;;;-141.21;100.00
67697;BME280;54486;51.442;6.778;2023-12-20T06:30:53;78109.09;;;-141.21;100.00
67697;BME280;54486;51.442;6.778;2023-12-20T06:33:21;78101.06;;;-141.21;100.00
67697;BME280;54486;51.442;6.778;2023-12-20T06:35:49;78095.06;;;-141.21;100.00
67697;BME280;54486;51.442;6.778;2023-12-20T06:38:18;78083.06;;;-141.21;100.00
67697;BME280;54486;51.442;6.778;2023-12-20T06:40:45;78079.06;;;-141.21;100.00
67697;BME280;54486;51.442;6.778;2023-12-20T06:43:13;78075.06;;;-141.21;100.00
67697;BME280;54486;51.442;6.778;2023-12-20T06:45:58;78071.03;;;-141.21;100.00
67697;BME280;54486;51.442;6.778;2023-12-20T06:48:26;78075.06;;;-141.21;99.76
67697;BME280;54486;51.442;6.778;2023-12-20T06:50:53;78079.06;;;-141.21;99.80
67697;BME280;54486;51.442;6.778;2023-12-20T06:53:20;78079.06;;;-141.21;99.49
67697;BME280;54486;51.442;6.778;2023-12-20T06:55:47;78071.03;;;-141.21;98.80
67697;BME280;54486;51.442;6.778;2023-12-20T06:58:14;78063.03;;;-141.21;98.75
67697;BME280;54486;51.442;6.778;2023-12-20T07:00:42;78067.03;;;-141.21;98.46
67697;BME280;54486;51.442;6.778;2023-12-20T07:03:09;78059.03;;;-141.21;98.58
67697;BME280;54486;51.442;6.778;2023-12-20T07:05:36;78053.03;;;-141.21;98.36
67697;BME280;54486;51.442;6.778;2023-12-20T07:08:04;78047.03;;;-141.21;98.52
67697;BME280;54486;51.442;6.778;2023-12-20T07:10:31;78047.03;;;-141.21;97.82
67697;BME280;54486;51.442;6.778;2023-12-20T07:12:58;78043.00;;;-141.21;97.99
67697;BME280;54486;51.442;6.778;2023-12-20T07:15:25;78047.03;;;-141.21;97.28
67697;BME280;54486;51.442;6.778;2023-12-20T07:17:53;78035.00;;;-141.21;97.52
67697;BME280;54486;51.442;6.778;2023-12-20T07:20:21;78039.00;;;-141.21;97.14
67697;BME280;54486;51.442;6.778;2023-12-20T07:22:48;78029.00;;;-141.21;96.73
67697;BME280;54486;51.442;6.778;2023-12-20T07:25:16;78027.00;;;-141.21;96.36
67697;BME280;54486;51.442;6.778;2023-12-20T07:27:43;78031.00;;;-141.21;96.98
67697;BME280;54486;51.442;6.778;2023-12-20T07:30:11;78031.00;;;-141.21;96.01
67697;BME280;54486;51.442;6.778;2023-12-20T07:32:38;78025.00;;;-141.21;96.08
67697;BME280;54486;51.442;6.778;2023-12-20T07:35:06;78014.97;;;-141.21;95.82
67697;BME280;54486;51.442;6.778;2023-12-20T07:37:33;78019.00;;;-141.21;95.57
67697;BME280;54486;51.442;6.778;2023-12-20T07:40:00;78023.00;;;-141.21;95.52
67697;BME280;54486;51.442;6.778;2023-12-20T07:42:28;78014.97;;;-141.21;95.49
67697;BME280;54486;51.442;6.778;2023-12-20T07:44:55;78021.00;;;-141.21;95.33
67697;BME280;54486;51.442;6.778;2023-12-20T07:47:22;78023.00;;;-141.21;95.44
67697;BME280;54486;51.442;6.778;2023-12-20T07:49:49;78027.00;;;-141.21;95.84
67697;BME280;54486;51.442;6.778;2023-12-20T07:52:18;78027.00;;;-141.21;94.63
67697;BME280;54486;51.442;6.778;2023-12-20T07:54:46;78023.00;;;-141.21;94.27
67697;BME280;54486;51.442;6.778;2023-12-20T07:57:13;78025.00;;;-141.21;94.60
67697;BME280;54486;51.442;6.778;2023-12-20T07:59:40;78014.97;;;-141.21;94.80
67697;BME280;54486;51.442;6.778;2023-12-20T08:02:07;78010.97;;;-141.21;94.35
67697;BME280;54486;51.442;6.778;2023-12-20T08:04:35;77998.97;;;-141.21;94.33
67697;BME280;54486;51.442;6.778;2023-12-20T08:07:03;78006.97;;;-141.21;93.78
67697;BME280;54486;51.442;6.778;2023-12-20T08:09:30;77996.97;;;-141.21;93.86
67697;BME280;54486;51.442;6.778;2023-12-20T08:11:58;78008.97;;;-141.21;94.13
67697;BME280;54486;51.442;6.778;2023-12-20T08:14:27;78006.97;;;-141.21;93.99
67697;BME280;54486;51.442;6.778;2023-12-20T08:16:54;78004.97;;;-141.21;93.51
67697;BME280;54486;51.442;6.778;2023-12-20T08:19:21;78006.97;;;-141.21;93.79
67697;BME280;54486;51.442;6.778;2023-12-20T08:21:48;78006.97;;;-141.21;93.59
67697;BME280;54486;51.442;6.778;2023-12-20T08:24:16;78010.97;;;-141.21;93.88
67697;BME280;54486;51.442;6.778;2023-12-20T08:26:43;78006.97;;;-141.21;93.65
67697;BME280;54486;51.442;6.778;2023-12-20T08:29:13;78006.97;;;-141.21;93.73
67697;BME280;54486;51.442;6.778;2023-12-20T08:31:40;78006.97;;;-141.21;93.53
67697;BME280;54486;51.442;6.778;2023-12-20T08:34:07;78014.97;;;-141.21;93.12
67697;BME280;54486;51.442;6.778;2023-12-20T08:36:35;78019.00;;;-141.21;93.29
67697;BME280;54486;51.442;6.778;2023-12-20T08:39:02;78016.97;;;-141.21;92.70
67697;BME280;54486;51.442;6.778;2023-12-20T08:41:33;78023.00;;;-141.21;92.89
67697;BME280;54486;51.442;6.778;2023-12-20T08:43:59;78019.00;;;-141.21;92.81
67697;BME280;54486;51.442;6.778;2023-12-20T08:46:26;78010.97;;;-141.21;92.89
67697;BME280;54486;51.442;6.778;2023-12-20T08:48:53;78023.00;;;-141.21;93.29
67697;BME280;54486;51.442;6.778;2023-12-20T08:51:21;78006.97;;;-141.21;92.39
67697;BME280;54486;51.442;6.778;2023-12-20T08:53:49;78010.97;;;-141.21;92.39
67697;BME280;54486;51.442;6.778;2023-12-20T08:56:17;78008.97;;;-141.21;92.53
67697;BME280;54486;51.442;6.778;2023-12-20T08:58:45;78010.97;;;-141.21;92.23
67697;BME280;54486;51.442;6.778;2023-12-20T09:01:14;78006.97;;;-141.21;92.41
67697;BME280;54486;51.442;6.778;2023-12-20T09:03:41;78002.97;;;-141.21;92.29
67697;BME280;54486;51.442;6.778;2023-12-20T09:06:08;78000.97;;;-141.21;92.08
67697;BME280;54486;51.442;6.778;2023-12-20T09:08:36;78002.97;;;-141.21;92.01
67697;BME280;54486;51.442;6.778;2023-12-20T09:11:03;77998.97;;;-141.21;91.68
67697;BME280;54486;51.442;6.778;2023-12-20T09:13:30;78014.97;;;-141.21;91.49
67697;BME280;54486;51.442;6.778;2023-12-20T09:15:59;77994.97;;;-141.21;91.56
67697;BME280;54486;51.442;6.778;2023-12-20T09:18:26;77994.97;;;-141.21;92.20
67697;BME280;54486;51.442;6.778;2023-12-20T09:20:54;77992.97;;;-141.21;92.25
67697;BME280;54486;51.442;6.778;2023-12-20T09:23:22;77996.97;;;-141.21;92.05
67697;BME280;54486;51.442;6.778;2023-12-20T09:25:49;78000.97;;;-141.21;91.99
67697;BME280;54486;51.442;6.778;2023-12-20T09:28:16;77998.97;;;-141.21;91.90
67697;BME280;54486;51.442;6.778;2023-12-20T09:30:43;77990.97;;;-141.21;91.84
67697;BME280;54486;51.442;6.778;2023-12-20T09:33:12;77990.97;;;-141.21;92.08
67697;BME280;54486;51.442;6.778;2023-12-20T09:35:39;77978.94;;;-141.21;91.95
67697;BME280;54486;51.442;6.778;2023-12-20T09:38:07;77984.94;;;-141.21;91.67
67697;BME280;54486;51.442;6.778;2023-12-20T09:40:36;77990.97;;;-141.21;91.59
67697;BME280;54486;51.442;6.778;2023-12-20T09:43:11;77978.94;;;-141.21;91.52
67697;BME280;54486;51.442;6.778;2023-12-20T09:45:41;77986.97;;;-141.21;91.37
67697;BME280;54486;51.442;6.778;2023-12-20T09:48:11;77994.97;;;-141.21;91.57
67697;BME280;54486;51.442;6.778;2023-12-20T09:50:39;77990.97;;;-141.21;91.70
67697;BME280;54486;51.442;6.778;2023-12-20T09:53:08;77982.94;;;-141.21;91.97
67697;BME280;54486;51.442;6.778;2023-12-20T09:55:37;77986.97;;;-141.21;91.55
67697;BME280;54486;51.442;6.778;2023-12-20T09:58:05;77978.94;;;-141.21;91.68
67697;BME280;54486;51.442;6.778;2023-12-20T10:00:34;77986.97;;;-141.21;91.49
67697;BME280;54486;51.442;6.778;2023-12-20T10:03:02;77974.94;;;-141.21;91.73
67697;BME280;54486;51.442;6.778;2023-12-20T10:05:31;77982.94;;;-141.21;91.33
67697;BME280;54486;51.442;6.778;2023-12-20T10:08:00;77970.94;;;-141.21;91.49
67697;BME280;54486;51.442;6.778;2023-12-20T10:10:29;77970.94;;;-141.21;91.28
67697;BME280;54486;51.442;6.778;2023-12-20T10:13:10;77964.94;;;-141.21;91.41
67697;BME280;54486;51.442;6.778;2023-12-20T10:15:38;77966.94;;;-141.21;90.87
67697;BME280;54486;51.442;6.778;2023-12-20T10:18:05;77956.94;;;-141.21;91.02
67697;BME280;54486;51.442;6.778;2023-12-20T10:20:34;77952.91;;;-141.21;91.08
67697;BME280;54486;51.442;6.778;2023-12-20T10:23:01;77960.94;;;-141.21;90.67
67697;BME280;54486;51.442;6.778;2023-12-20T10:25:28;77934.91;;;-141.21;91.15
67697;BME280;54486;51.442;6.778;2023-12-20T10:28:15;77946.91;;;-141.21;90.13
67697;BME280;54486;51.442;6.778;2023-12-20T10:30:46;77930.91;;;-141.21;90.14
67697;BME280;54486;51.442;6.778;2023-12-20T10:33:23;77938.91;;;-141.21;90.40
67697;BME280;54486;51.442;6.778;2023-12-20T10:35:50;77922.88;;;-141.21;90.77
67697;BME280;54486;51.442;6.778;2023-12-20T10:38:18;77918.88;;;-141.21;90.83
67697;BME280;54486;51.442;6.778;2023-12-20T10:40:46;77926.88;;;-141.21;90.42
67697;BME280;54486;51.442;6.778;2023-12-20T10:43:14;77926.88;;;-141.21;89.99
67697;BME280;54486;51.442;6.778;2023-12-20T10:45:42;77922.88;;;-141.21;89.97
67697;BME280;54486;51.442;6.778;2023-12-20T10:48:12;77910.88;;;-141.21;90.26
67697;BME280;54486;51.442;6.778;2023-12-20T10:50:41;77904.88;;;-141.21;89.64
67697;BME280;54486;51.442;6.778;2023-12-20T10:53:08;77898.88;;;-141.21;89.96
67697;BME280;54486;51.442;6.778;2023-12-20T10:55:35;77900.88;;;-141.21;89.70
67697;BME280;54486;51.442;6.778;2023-12-20T10:58:09;77898.88;;;-141.21;89.80
67697;BME280;54486;51.442;6.778;2023-12-20T11:00:40;77900.88;;;-141.21;89.78
67697;BME280;54486;51.442;6.778;2023-12-20T11:03:09;77890.84;;;-141.21;89.47
67697;BME280;54486;51.442;6.778;2023-12-20T11:06:02;77900.88;;;-141.21;89.60
67697;BME280;54486;51.442;6.778;2023-12-20T11:08:55;77894.84;;;-141.21;89.74
67697;BME280;54486;51.442;6.778;2023-12-20T11:11:30;77894.84;;;-141.21;90.11
67697;BME280;54486;51.442;6.778;2023-12-20T11:14:04;77890.84;;;-141.21;89.95
67697;BME280;54486;51.442;6.778;2023-12-20T11:16:33;77884.84;;;-141.21;89.80
67697;BME280;54486;51.442;6.778;2023-12-20T11:19:14;77882.84;;;-141.21;89.74
67697;BME280;54486;51.442;6.778;2023-12-20T11:21:41;77878.84;;;-141.21;89.89
67697;BME280;54486;51.442;6.778;2023-12-20T11:24:09;77878.84;;;-141.21;89.85
67697;BME280;54486;51.442;6.778;2023-12-20T11:26:36;77874.84;;;-141.21;89.49
67697;BME280;54486;51.442;6.778;2023-12-20T11:29:29;77870.84;;;-141.21;90.20
67697;BME280;54486;51.442;6.778;2023-12-20T11:31:56;77858.81;;;-141.21;89.02
67697;BME280;54486;51.442;6.778;2023-12-20T11:34:27;77854.81;;;-141.21;89.47
67697;BME280;54486;51.442;6.778;2023-12-20T11:37:02;77848.81;;;-141.21;88.58
67697;BME280;54486;51.442;6.778;2023-12-20T11:39:30;77850.81;;;-141.21;88.99
67697;BME280;54486;51.442;6.778;2023-12-20T11:42:04;77846.81;;;-141.21;89.21
67697;BME280;54486;51.442;6.778;2023-12-20T11:44:32;77848.81;;;-141.21;89.28
67697;BME280;54486;51.442;6.778;2023-12-20T11:47:00;77858.81;;;-141.21;89.46
67697;BME280;54486;51.442;6.778;2023-12-20T11:49:27;77848.81;;;-141.21;89.66
67697;BME280;54486;51.442;6.778;2023-12-20T11:51:57;77852.81;;;-141.21;89.85
67697;BME280;54486;51.442;6.778;2023-12-20T11:54:24;77854.81;;;-141.21;90.96
67697;BME280;54486;51.442;6.778;2023-12-20T11:56:51;77858.81;;;-141.21;91.56
67697;BME280;54486;51.442;6.778;2023-12-20T11:59:18;77858.81;;;-141.21;91.96
67697;BME280;54486;51.442;6.778;2023-12-20T12:01:50;77858.81;;;-141.21;92.38
67697;BME280;54486;51.442;6.778;2023-12-20T12:04:18;77846.81;;;-141.21;92.67
67697;BME280;54486;51.442;6.778;2023-12-20T12:06:45;77852.81;;;-141.21;92.61
67697;BME280;54486;51.442;6.778;2023-12-20T12:09:13;77842.81;;;-141.21;92.58
67697;BME280;54486;51.442;6.778;2023-12-20T12:11:40;77832.78;;;-141.21;92.31
67697;BME280;54486;51.442;6.778;2023-12-20T12:14:07;77834.78;;;-141.21;92.33
67697;BME280;54486;51.442;6.778;2023-12-20T12:16:35;77834.78;;;-141.21;92.33
67697;BME280;54486;51.442;6.778;2023-12-20T12:19:02;77822.78;;;-141.21;92.04
67697;BME280;54486;51.442;6.778;2023-12-20T12:21:29;77826.78;;;-141.21;92.16
67697;BME280;54486;51.442;6.778;2023-12-20T12:24:09;77824.78;;;-141.21;92.40
67697;BME280;54486;51.442;6.778;2023-12-20T12:26:37;77830.78;;;-141.21;92.10
67697;BME280;54486;51.442;6.778;2023-12-20T12:29:07;77826.78;;;-141.21;92.17
67697;BME280;54486;51.442;6.778;2023-12-20T12:31:35;77826.78;;;-141.21;92.05
67697;BME280;54486;51.442;6.778;2023-12-20T12:34:03;77836.81;;;-141.21;92.19
67697;BME280;54486;51.442;6.778;2023-12-20T12:36:30;77822.78;;;-141.21;91.62
67697;BME280;54486;51.442;6.778;2023-12-20T12:38:57;77830.78;;;-141.21;91.24
67697;BME280;54486;51.442;6.778;2023-12-20T12:41:25;77820.78;;;-141.21;92.00